Time,TemperatureF,DewpointF,PressureIn,WindDirection,WindDirectionDegrees,WindSpeedMPH,WindSpeedGustMPH,Humidity,HourlyPrecipIn,Conditions,Clouds,dailyrainin,SoftwareType,DateUTC
2013-03-01 00:00:00,36.9,27.3,30.03,SE,140,2.0,5.0,68,0.00,OVC,,0.00,WeatherDisplay:10.37,2013-03-01 05:00:00,
2013-03-01 00:10:00,37.0,27.4,30.03,SSE,157,0.0,2.0,68,0.00,OVC,,0.00,WeatherDisplay:10.37,2013-03-01 05:10:00,
2013-03-01 00:20:00,37.0,27.8,30.02,SE,138,0.0,5.0,69,0.00,OVC,,0.00,WeatherDisplay:10.37,2013-03-01 05:20:00,
2013-03-01 00:31:00,36.9,28.0,30.02,SE,138,0.0,0.0,70,0.00,OVC,,0.00,WeatherDisplay:10.37,2013-03-01 05:31:00,
2013-03-01 00:40:00,36.8,28.3,30.01,SE,138,0.0,1.0,71,0.00,OVC,,0.00,WeatherDisplay:10.37,2013-03-01 05:40:00,
2013-03-01 00:50:00,36.8,28.2,30.01,SE,138,0.0,1.0,71,0.00,OVC,,0.00,WeatherDisplay:10.37,2013-03-01 05:50:00,
2013-03-01 01:00:00,36.8,28.6,30.01,SE,138,0.0,1.0,72,0.00,OVC,,0.00,WeatherDisplay:10.37,2013-03-01 06:00:00,
2013-03-01 01:10:00,36.8,28.6,30.01,SE,138,0.0,2.0,72,0.00,OVC,,0.00,WeatherDisplay:10.37,2013-03-01 06:10:00,
2013-03-01 01:20:00,36.7,28.5,30.02,SE,136,0.0,5.0,72,0.00,OVC,,0.00,WeatherDisplay:10.37,2013-03-01 06:20:00,
2013-03-01 01:31:00,36.8,28.3,30.01,SE,134,1.0,2.0,71,0.00,OVC,,0.00,WeatherDisplay:10.37,2013-03-01 06:31:00,
2013-03-01 01:40:00,36.9,28.4,30.02,SE,134,0.0,4.0,71,0.00,OVC,,0.00,WeatherDisplay:10.37,2013-03-01 06:40:00,
2013-03-01 01:50:00,36.9,28.4,30.01,ESE,104,1.0,4.0,71,0.00,OVC,,0.00,WeatherDisplay:10.37,2013-03-01 06:50:00,
2013-03-01 02:00:00,37.0,28.5,30.02,ESE,104,0.0,2.0,71,0.00,OVC,,0.00,WeatherDisplay:10.37,2013-03-01 07:00:00,
2013-03-01 02:10:00,36.9,29.1,30.01,ESE,104,0.0,1.0,73,0.00,OVC,,0.00,WeatherDisplay:10.37,2013-03-01 07:10:00,
2013-03-01 02:20:00,36.8,29.0,30.01,ESE,104,0.0,1.0,73,0.00,OVC,,0.00,WeatherDisplay:10.37,2013-03-01 07:20:00,
2013-03-01 02:31:00,36.7,28.9,30.01,ESE,104,0.0,2.0,73,0.00,OVC,,0.00,WeatherDisplay:10.37,2013-03-01 07:31:00,
2013-03-01 02:40:00,36.7,28.5,30.01,ESE,104,0.0,4.0,72,0.00,OVC,,0.00,WeatherDisplay:10.37,2013-03-01 07:40:00,
2013-03-01 02:50:00,36.6,28.4,30.01,ESE,104,0.0,1.0,72,0.00,OVC,,0.00,WeatherDisplay:10.37,2013-03-01 07:50:00,
2013-03-01 03:00:00,36.6,29.1,30.01,ESE,104,0.0,1.0,74,0.00,OVC,,0.00,WeatherDisplay:10.37,2013-03-01 08:00:00,
2013-03-01 03:10:00,36.7,28.5,30.01,ESE,104,0.0,1.0,72,0.00,OVC,,0.00,WeatherDisplay:10.37,2013-03-01 08:10:00,
2013-03-01 03:20:00,36.7,28.9,30.01,ESE,104,0.0,1.0,73,0.00,OVC,,0.00,WeatherDisplay:10.37,2013-03-01 08:20:00,
2013-03-01 03:31:00,36.6,28.8,30.01,ESE,104,0.0,1.0,73,0.00,OVC,,0.00,WeatherDisplay:10.37,2013-03-01 08:31:00,
2013-03-01 03:40:00,36.6,28.4,30.01,SSW,210,0.0,2.0,72,0.00,OVC,,0.00,WeatherDisplay:10.37,2013-03-01 08:40:00,
2013-03-01 03:50:00,36.6,28.4,30.01,SSW,197,1.0,2.0,72,0.00,OVC,,0.00,WeatherDisplay:10.37,2013-03-01 08:50:00,
2013-03-01 04:00:00,36.6,28.4,30.02,South,171,0.0,2.0,72,0.00,OVC,,0.00,WeatherDisplay:10.37,2013-03-01 09:00:00,
2013-03-01 04:10:00,36.6,28.4,30.02,South,173,0.0,4.0,72,0.00,OVC,,0.00,WeatherDisplay:10.37,2013-03-01 09:10:00,
2013-03-01 04:20:00,36.6,28.4,30.02,South,176,0.0,6.0,72,0.00,OVC,,0.00,WeatherDisplay:10.37,2013-03-01 09:20:00,
2013-03-01 04:31:00,36.6,28.4,30.02,SSW,192,2.0,5.0,72,0.00,OVC,,0.00,WeatherDisplay:10.37,2013-03-01 09:31:00,
2013-03-01 04:40:00,36.5,28.3,30.02,South,172,2.0,5.0,72,0.00,OVC,,0.00,WeatherDisplay:10.37,2013-03-01 09:40:00,
2013-03-01 04:50:00,36.5,29.7,30.02,SSW,193,0.0,6.0,76,0.00,OVC,,0.00,WeatherDisplay:10.37,2013-03-01 09:50:00,
2013-03-01 05:00:00,36.5,28.3,30.02,SSW,204,1.0,4.0,72,0.00,OVC,,0.00,WeatherDisplay:10.37,2013-03-01 10:00:00,
2013-03-01 05:10:00,36.4,28.6,30.02,SSW,207,1.0,4.0,73,0.00,OVC,,0.00,WeatherDisplay:10.37,2013-03-01 10:10:00,
2013-03-01 05:20:00,36.4,28.6,30.02,SSW,207,0.0,3.0,73,0.00,OVC,,0.00,WeatherDisplay:10.37,2013-03-01 10:20:00,
2013-03-01 05:31:00,36.4,28.6,30.02,SSW,207,0.0,2.0,73,0.00,OVC,,0.00,WeatherDisplay:10.37,2013-03-01 10:31:00,
2013-03-01 05:40:00,36.4,28.6,30.02,SSW,207,0.0,2.0,73,0.00,OVC,,0.00,WeatherDisplay:10.37,2013-03-01 10:40:00,
2013-03-01 05:50:00,36.3,28.5,30.02,NNW,330,0.0,3.0,73,0.00,OVC,,0.00,WeatherDisplay:10.37,2013-03-01 10:50:00,
2013-03-01 06:00:00,36.3,28.5,30.02,NW,305,1.0,2.0,73,0.00,OVC,,0.00,WeatherDisplay:10.37,2013-03-01 11:00:00,
2013-03-01 06:10:00,36.3,28.5,30.02,South,180,0.0,2.0,73,0.00,OVC,,0.00,WeatherDisplay:10.37,2013-03-01 11:10:00,
2013-03-01 06:20:00,36.3,28.5,30.02,East,86,0.0,2.0,73,0.00,OVC,,0.00,WeatherDisplay:10.37,2013-03-01 11:20:00,
2013-03-01 06:31:00,36.2,28.7,30.02,SW,234,1.0,5.0,74,0.00,OVC,,0.00,WeatherDisplay:10.37,2013-03-01 11:31:00,
2013-03-01 06:40:00,36.2,28.7,30.01,SW,233,2.0,8.0,74,0.00,OVC,,0.00,WeatherDisplay:10.37,2013-03-01 11:40:00,
2013-03-01 06:50:00,36.2,28.7,30.02,WSW,258,2.0,9.0,74,0.00,OVC,,0.00,WeatherDisplay:10.37,2013-03-01 11:50:00,
2013-03-01 07:00:00,36.2,28.7,30.02,West,272,0.0,6.0,74,0.00,OVC,,0.00,WeatherDisplay:10.37,2013-03-01 12:00:00,
2013-03-01 07:10:00,36.1,29.0,30.02,SW,221,2.0,5.0,75,0.00,OVC,,0.00,WeatherDisplay:10.37,2013-03-01 12:10:00,
2013-03-01 07:20:00,36.1,28.9,30.02,SSW,212,1.0,6.0,75,0.00,OVC,,0.00,WeatherDisplay:10.37,2013-03-01 12:20:00,
2013-03-01 07:31:00,36.1,29.0,30.02,SSW,202,0.0,3.0,75,0.00,OVC,,0.00,WeatherDisplay:10.37,2013-03-01 12:31:00,
2013-03-01 07:40:00,36.2,29.4,30.03,SSW,201,2.0,4.0,76,0.00,OVC,,0.00,WeatherDisplay:10.37,2013-03-01 12:40:00,
2013-03-01 07:50:00,36.2,29.4,30.03,SW,232,1.0,6.0,76,0.00,OVC,,0.00,WeatherDisplay:10.37,2013-03-01 12:50:00,
2013-03-01 08:00:00,36.2,29.4,30.03,SSW,213,1.0,8.0,76,0.00,OVC,,0.00,WeatherDisplay:10.37,2013-03-01 13:00:00,
2013-03-01 08:10:00,36.3,29.5,30.03,SSE,158,0.0,9.0,76,0.00,OVC,,0.00,WeatherDisplay:10.37,2013-03-01 13:10:00,
2013-03-01 08:20:00,36.4,29.6,30.04,ENE,67,0.0,4.0,76,0.00,OVC,,0.00,WeatherDisplay:10.37,2013-03-01 13:20:00,
2013-03-01 08:31:00,36.5,29.7,30.04,ESE,106,0.0,2.0,76,0.00,OVC,,0.00,WeatherDisplay:10.37,2013-03-01 13:31:00,
2013-03-01 08:40:00,36.7,29.8,30.04,SSW,194,1.0,4.0,76,0.00,OVC,,0.00,WeatherDisplay:10.37,2013-03-01 13:40:00,
2013-03-01 08:50:00,36.9,30.0,30.04,South,169,0.0,4.0,76,0.00,OVC,,0.00,WeatherDisplay:10.37,2013-03-01 13:50:00,
2013-03-01 09:00:00,37.1,30.2,30.05,SW,220,3.0,7.0,76,0.00,OVC,,0.00,WeatherDisplay:10.37,2013-03-01 14:00:00,
2013-03-01 09:10:00,37.2,30.3,30.04,South,174,3.0,5.0,76,0.00,OVC,,0.00,WeatherDisplay:10.37,2013-03-01 14:10:00,
2013-03-01 09:20:00,37.5,30.6,30.05,South,177,2.0,7.0,76,0.00,OVC,,0.00,WeatherDisplay:10.37,2013-03-01 14:20:00,
2013-03-01 09:31:00,37.7,30.5,30.05,NE,52,1.0,5.0,75,0.00,OVC,,0.00,WeatherDisplay:10.37,2013-03-01 14:31:00,
2013-03-01 09:40:00,38.1,30.9,30.04,North,359,1.0,4.0,75,0.00,OVC,,0.00,WeatherDisplay:10.37,2013-03-01 14:40:00,
2013-03-01 09:50:00,38.5,30.9,30.04,NW,313,1.0,6.0,74,0.00,OVC,,0.00,WeatherDisplay:10.37,2013-03-01 14:50:00,
2013-03-01 10:00:00,38.8,30.9,30.04,East,82,1.0,7.0,73,0.00,OVC,,0.00,WeatherDisplay:10.37,2013-03-01 15:00:00,
2013-03-01 10:10:00,39.0,31.1,30.04,SSE,168,0.0,8.0,73,0.00,OVC,,0.00,WeatherDisplay:10.37,2013-03-01 15:10:00,
2013-03-01 10:20:00,39.4,31.1,30.04,SE,132,0.0,5.0,72,0.00,OVC,,0.00,WeatherDisplay:10.37,2013-03-01 15:20:00,
2013-03-01 10:31:00,39.8,31.2,30.04,East,87,1.0,8.0,71,0.00,OVC,,0.00,WeatherDisplay:10.37,2013-03-01 15:31:00,
2013-03-01 10:40:00,39.9,30.9,30.05,ESE,112,1.0,7.0,70,0.00,OVC,,0.00,WeatherDisplay:10.37,2013-03-01 15:40:00,
2013-03-01 10:50:00,40.4,31.0,30.05,ENE,60,2.0,10.0,69,0.00,OVC,,0.00,WeatherDisplay:10.37,2013-03-01 15:50:00,
2013-03-01 11:00:00,40.5,30.4,30.05,SW,218,6.0,10.0,67,0.00,OVC,,0.00,WeatherDisplay:10.37,2013-03-01 16:00:00,
2013-03-01 11:10:00,40.1,30.4,30.05,SSW,198,1.0,6.0,68,0.00,OVC,,0.00,WeatherDisplay:10.37,2013-03-01 16:10:00,
2013-03-01 11:20:00,39.9,30.1,30.04,NE,55,0.0,6.0,68,0.00,OVC,,0.00,WeatherDisplay:10.37,2013-03-01 16:20:00,
2013-03-01 11:31:00,39.8,30.5,30.04,NE,53,1.0,5.0,69,0.00,OVC,,0.00,WeatherDisplay:10.37,2013-03-01 16:31:00,
2013-03-01 11:40:00,39.7,30.4,30.04,NE,53,1.0,5.0,69,0.00,OVC,,0.00,WeatherDisplay:10.37,2013-03-01 16:40:00,
2013-03-01 11:50:00,39.6,30.3,30.04,ENE,59,3.0,7.0,69,0.00,OVC,,0.00,WeatherDisplay:10.37,2013-03-01 16:50:00,
2013-03-01 12:00:00,39.7,30.4,30.04,NE,41,1.0,5.0,69,0.00,OVC,,0.00,WeatherDisplay:10.37,2013-03-01 17:00:00,
2013-03-01 12:10:00,39.6,30.3,30.04,NE,47,2.0,6.0,69,0.00,OVC,,0.00,WeatherDisplay:10.37,2013-03-01 17:10:00,
2013-03-01 12:20:00,39.8,30.5,30.04,East,82,2.0,5.0,69,0.00,OVC,,0.00,WeatherDisplay:10.37,2013-03-01 17:20:00,
2013-03-01 12:31:00,39.9,30.5,30.04,ESE,113,1.0,5.0,69,0.00,OVC,,0.00,WeatherDisplay:10.37,2013-03-01 17:31:00,
2013-03-01 12:40:00,39.8,30.5,30.03,SE,143,2.0,6.0,69,0.00,OVC,,0.00,WeatherDisplay:10.37,2013-03-01 17:40:00,
2013-03-01 12:50:00,40.0,30.6,30.03,ESE,107,2.0,6.0,69,0.00,OVC,,0.00,WeatherDisplay:10.37,2013-03-01 17:50:00,
2013-03-01 13:00:00,40.3,31.0,30.03,SE,128,0.0,7.0,69,0.00,OVC,,0.00,WeatherDisplay:10.37,2013-03-01 18:00:00,
2013-03-01 13:10:00,40.7,31.0,30.02,SE,126,0.0,4.0,68,0.00,OVC,,0.00,WeatherDisplay:10.37,2013-03-01 18:10:00,
2013-03-01 13:20:00,40.8,31.1,30.02,ESE,119,1.0,6.0,68,0.00,OVC,,0.00,WeatherDisplay:10.37,2013-03-01 18:20:00,
2013-03-01 13:31:00,40.2,30.8,30.02,ENE,64,1.0,7.0,69,0.00,OVC,,0.00,WeatherDisplay:10.37,2013-03-01 18:31:00,
2013-03-01 13:40:00,40.1,31.1,30.01,NNE,32,1.0,6.0,70,0.00,OVC,,0.00,WeatherDisplay:10.37,2013-03-01 18:40:00,
2013-03-01 13:50:00,40.2,31.5,30.01,NNW,334,1.0,3.0,71,0.00,OVC,,0.00,WeatherDisplay:10.37,2013-03-01 18:50:00,
2013-03-01 14:00:00,40.4,31.4,30.00,NE,55,1.0,4.0,70,0.00,OVC,,0.00,WeatherDisplay:10.37,2013-03-01 19:00:00,
2013-03-01 14:10:00,40.6,31.2,30.01,SSW,193,0.0,4.0,69,0.00,OVC,,0.00,WeatherDisplay:10.37,2013-03-01 19:10:00,
2013-03-01 14:20:00,40.6,31.2,30.01,SSE,150,0.0,7.0,69,0.00,OVC,,0.00,WeatherDisplay:10.37,2013-03-01 19:20:00,
2013-03-01 14:31:00,40.4,31.4,30.01,SE,142,0.0,5.0,70,0.00,OVC,,0.00,WeatherDisplay:10.37,2013-03-01 19:31:00,
2013-03-01 14:40:00,40.4,31.0,30.00,ESE,111,2.0,6.0,69,0.00,OVC,,0.00,WeatherDisplay:10.37,2013-03-01 19:40:00,
2013-03-01 14:50:00,40.2,30.8,30.00,SE,142,1.0,4.0,69,0.00,OVC,,0.00,WeatherDisplay:10.37,2013-03-01 19:50:00,
2013-03-01 15:00:00,40.1,31.1,30.01,SW,221,5.0,9.0,70,0.00,OVC,,0.00,WeatherDisplay:10.37,2013-03-01 20:00:00,
2013-03-01 15:10:00,39.9,30.9,30.00,WSW,237,3.0,10.0,70,0.00,OVC,,0.00,WeatherDisplay:10.37,2013-03-01 20:10:00,
2013-03-01 15:20:00,39.9,30.9,30.00,SW,233,2.0,8.0,70,0.00,OVC,,0.00,WeatherDisplay:10.37,2013-03-01 20:20:00,
2013-03-01 15:31:00,39.9,30.9,30.00,SSE,151,5.0,8.0,70,0.00,OVC,,0.00,WeatherDisplay:10.37,2013-03-01 20:31:00,
2013-03-01 15:40:00,39.7,31.1,30.01,East,87,1.0,5.0,71,0.00,OVC,,0.00,WeatherDisplay:10.37,2013-03-01 20:40:00,
2013-03-01 15:50:00,39.7,30.7,30.00,ENE,61,5.0,8.0,70,0.00,OVC,,0.00,WeatherDisplay:10.37,2013-03-01 20:50:00,
2013-03-01 16:00:00,39.6,30.9,30.01,NNW,331,0.0,3.0,71,0.00,OVC,,0.00,WeatherDisplay:10.37,2013-03-01 21:00:00,
2013-03-01 16:10:00,39.5,30.9,30.01,NE,38,0.0,3.0,71,0.00,OVC,,0.00,WeatherDisplay:10.37,2013-03-01 21:10:00,
2013-03-01 16:20:00,39.5,30.9,30.01,ENE,60,0.0,5.0,71,0.00,OVC,,0.00,WeatherDisplay:10.37,2013-03-01 21:20:00,
2013-03-01 16:31:00,39.5,31.2,30.00,East,89,0.0,5.0,72,0.00,OVC,,0.00,WeatherDisplay:10.37,2013-03-01 21:31:00,
2013-03-01 16:40:00,39.3,30.7,30.01,SE,125,3.0,8.0,71,0.00,OVC,,0.00,WeatherDisplay:10.37,2013-03-01 21:40:00,
2013-03-01 16:50:00,39.2,30.9,30.01,ESE,123,3.0,7.0,72,0.00,OVC,,0.00,WeatherDisplay:10.37,2013-03-01 21:50:00,
2013-03-01 17:00:00,39.2,30.9,30.02,South,171,5.0,8.0,72,0.00,OVC,,0.00,WeatherDisplay:10.37,2013-03-01 22:00:00,
2013-03-01 17:10:00,39.1,30.8,30.01,ESE,117,0.0,7.0,72,0.00,OVC,,0.00,WeatherDisplay:10.37,2013-03-01 22:10:00,
2013-03-01 17:20:00,39.1,30.8,30.01,ESE,121,0.0,6.0,72,0.00,OVC,,0.00,WeatherDisplay:10.37,2013-03-01 22:20:00,
2013-03-01 17:31:00,39.0,30.7,30.01,SSE,165,3.0,6.0,72,0.00,OVC,,0.00,WeatherDisplay:10.37,2013-03-01 22:31:00,
2013-03-01 17:40:00,39.0,30.7,30.01,SSE,157,0.0,7.0,72,0.00,OVC,,0.00,WeatherDisplay:10.37,2013-03-01 22:40:00,
2013-03-01 17:50:00,38.9,30.6,30.01,SSW,212,1.0,4.0,72,0.00,OVC,,0.00,WeatherDisplay:10.37,2013-03-01 22:50:00,
2013-03-01 18:00:00,38.9,31.0,30.02,South,181,0.0,6.0,73,0.00,OVC,,0.00,WeatherDisplay:10.37,2013-03-01 23:00:00,
2013-03-01 18:10:00,38.9,31.0,30.02,South,176,1.0,4.0,73,0.00,OVC,,0.00,WeatherDisplay:10.37,2013-03-01 23:10:00,
2013-03-01 18:20:00,38.8,30.8,30.02,East,83,0.0,4.0,73,0.00,OVC,,0.00,WeatherDisplay:10.37,2013-03-01 23:20:00,
2013-03-01 18:31:00,38.7,30.8,30.02,SE,130,0.0,7.0,73,0.00,OVC,,0.00,WeatherDisplay:10.37,2013-03-01 23:31:00,
2013-03-01 18:40:00,38.6,30.7,30.02,SE,142,1.0,5.0,73,0.00,OVC,,0.00,WeatherDisplay:10.37,2013-03-01 23:40:00,
2013-03-01 18:50:00,38.6,30.7,30.03,SE,145,0.0,5.0,73,0.00,OVC,,0.00,WeatherDisplay:10.37,2013-03-01 23:50:00,
2013-03-01 19:00:00,38.5,30.9,30.02,SE,145,1.0,2.0,74,0.00,OVC,,0.00,WeatherDisplay:10.37,2013-03-02 00:00:00,
2013-03-01 19:10:00,38.4,30.8,30.03,SE,145,0.0,2.0,74,0.00,OVC,,0.00,WeatherDisplay:10.37,2013-03-02 00:10:00,
2013-03-01 19:20:00,38.3,30.8,30.03,SE,145,1.0,4.0,74,0.00,OVC,,0.00,WeatherDisplay:10.37,2013-03-02 00:20:00,
2013-03-01 19:31:00,38.3,30.7,30.03,SE,145,0.0,1.0,74,0.00,OVC,,0.00,WeatherDisplay:10.37,2013-03-02 00:31:00,
2013-03-01 19:40:00,38.3,30.7,30.03,SE,145,0.0,2.0,74,0.00,OVC,,0.00,WeatherDisplay:10.37,2013-03-02 00:40:00,
2013-03-01 19:50:00,38.3,30.7,30.03,SSW,200,1.0,5.0,74,0.00,OVC,,0.00,WeatherDisplay:10.37,2013-03-02 00:50:00,
2013-03-01 20:00:00,38.2,30.6,30.03,South,177,3.0,6.0,74,0.00,OVC,,0.00,WeatherDisplay:10.37,2013-03-02 01:00:00,
2013-03-01 20:10:00,38.2,31.0,30.03,SSE,160,0.0,6.0,75,0.00,OVC,,0.00,WeatherDisplay:10.37,2013-03-02 01:10:00,
2013-03-01 20:20:00,38.1,30.9,30.04,South,177,5.0,8.0,75,0.00,OVC,,0.00,WeatherDisplay:10.37,2013-03-02 01:20:00,
2013-03-01 20:31:00,38.0,31.1,30.03,South,185,3.0,7.0,76,0.00,OVC,,0.00,WeatherDisplay:10.37,2013-03-02 01:31:00,
2013-03-01 20:40:00,37.7,31.5,30.04,South,178,3.0,7.0,78,0.00,OVC,,0.00,WeatherDisplay:10.37,2013-03-02 01:40:00,
2013-03-01 20:50:00,37.5,31.6,30.04,South,179,5.0,7.0,79,0.00,OVC,,0.00,WeatherDisplay:10.37,2013-03-02 01:50:00,
2013-03-01 21:00:00,37.3,31.4,30.04,SSE,164,0.0,8.0,79,0.00,OVC,,0.00,WeatherDisplay:10.37,2013-03-02 02:00:00,
2013-03-01 21:10:00,37.2,31.6,30.04,South,183,3.0,5.0,80,0.00,OVC,,0.00,WeatherDisplay:10.37,2013-03-02 02:10:00,
2013-03-01 21:20:00,37.1,31.5,30.04,SSE,152,1.0,6.0,80,0.00,OVC,,0.00,WeatherDisplay:10.37,2013-03-02 02:20:00,
2013-03-01 21:31:00,37.1,31.8,30.05,SE,126,0.0,5.0,81,0.00,OVC,,0.00,WeatherDisplay:10.37,2013-03-02 02:31:00,
2013-03-01 21:40:00,36.9,31.9,30.05,ESE,121,2.0,5.0,82,0.00,OVC,,0.00,WeatherDisplay:10.37,2013-03-02 02:40:00,
2013-03-01 21:50:00,36.6,31.9,30.05,SSE,167,2.0,6.0,83,0.00,OVC,,0.00,WeatherDisplay:10.37,2013-03-02 02:50:00,
2013-03-01 22:00:00,36.3,31.6,30.05,South,172,2.0,7.0,83,0.00,OVC,,0.00,WeatherDisplay:10.37,2013-03-02 03:00:00,
2013-03-01 22:10:00,36.0,31.6,30.05,SSW,192,2.0,7.0,84,0.00,OVC,,0.00,WeatherDisplay:10.37,2013-03-02 03:10:00,
2013-03-01 22:20:00,35.8,32.0,30.05,South,181,0.0,7.0,86,0.00,OVC,,0.00,WeatherDisplay:10.37,2013-03-02 03:20:00,
2013-03-01 22:31:00,35.6,32.1,30.05,SE,136,0.0,4.0,87,0.00,OVC,,0.00,WeatherDisplay:10.37,2013-03-02 03:31:00,
2013-03-01 22:40:00,35.4,32.2,30.05,SSE,167,1.0,4.0,88,0.01,-RA,,0.01,WeatherDisplay:10.37,2013-03-02 03:40:00,
2013-03-01 22:50:00,35.2,32.3,30.05,South,179,1.0,5.0,89,0.00,-RA,,0.01,WeatherDisplay:10.37,2013-03-02 03:50:00,
2013-03-01 23:00:00,35.1,32.2,30.05,South,171,2.0,5.0,89,0.00,-RA,,0.01,WeatherDisplay:10.37,2013-03-02 04:00:00,
2013-03-01 23:10:00,34.9,32.3,30.04,SSW,193,5.0,7.0,90,0.00,-RA,,0.01,WeatherDisplay:10.37,2013-03-02 04:10:00,
2013-03-01 23:20:00,34.8,32.4,30.04,South,177,1.0,7.0,91,0.00,-RA,,0.01,WeatherDisplay:10.37,2013-03-02 04:20:00,
2013-03-01 23:31:00,34.7,32.3,30.04,South,177,1.0,6.0,91,0.00,-RA,,0.01,WeatherDisplay:10.37,2013-03-02 04:31:00,
2013-03-01 23:40:00,34.7,32.3,30.03,SSW,199,3.0,5.0,91,0.00,OVC,,0.01,WeatherDisplay:10.37,2013-03-02 04:40:00,
2013-03-01 23:50:00,34.7,32.3,30.03,South,184,3.0,7.0,91,0.00,-RA,,0.01,WeatherDisplay:10.37,2013-03-02 04:50:00,